Terminal Aerodrome Forecast
Issued by NWS New Orleans/Baton Rouge, LA

Home | Current Version | Previous Version | Text Only | Print | Product List | Glossary On
Versions: 1 2 3 4 5 6 7 8 9 10 11 12
000
FTUS44 KLIX 262333
TAFNEW
TAF
KNEW 262333Z 2700/2724 35010KT P6SM FEW030 SCT080 BKN130
     FM270200 31007KT P6SM FEW090 SCT200
     FM271100 36008KT P6SM SCT015 BKN080
     FM271500 26009KT P6SM SCT040=

USA.gov is the U.S. government's official web portal to all federal, state and local government web resources and services.